Terminal Aerodrome Forecast
Issued by NWS

Home | Current Version | Previous Version | Text Only | Print | Product List | Glossary On
Versions: 1 2 3 4 5 6 7 8 9 10 11 12 13
000
FTUS45 KRIW 041122
TAFCOD
TAF
KCOD 041122Z 0412/0512 23013G20KT P6SM SCT080 BKN200
     FM041900 24018G30KT P6SM SCT060 BKN150
     FM050400 26012G18KT P6SM SCT050 BKN080 WS018/26050KT
     FM050800 01012G18KT P6SM VCSH SCT015 OVC030
      AMD LTD TO CLD VIS AND WIND=

USA.gov is the U.S. government's official web portal to all federal, state and local government web resources and services.